Time;durP1;ratioP1;P1;durP2;ratioP2;P2;SDS_P1;SDS_P2;PMS_P1;PMS_P2;Temp;Humidity;BMP_temperature;BMP_pressure;BME280_temperature;BME280_humidity;BME280_pressure;Samples;Min_cycle;Max_cycle;Signal;HPM_P1;HPM_P2
2023/09/27 00:00:10;;;;;;;5.57;4.90;;;;;;;;;;5048829;28;20203;-82
2023/09/27 00:02:38;;;;;;;5.30;4.73;;;;;;;;;;5031665;28;20237;-81
2023/09/27 00:05:07;;;;;;;5.10;4.50;;;;;;;;;;5029167;28;20255;-82
2023/09/27 00:07:36;;;;;;;5.53;4.77;;;;;;;;;;5034428;28;20257;-83
2023/09/27 00:10:09;;;;;;;4.57;4.17;;;;;;;;;;5038045;28;20609;-83
2023/09/27 00:12:36;;;;;;;4.70;4.30;;;;;;;;;;5016354;28;20210;-82
2023/09/27 00:15:04;;;;;;;4.40;4.00;;;;;;;;;;5036758;28;20305;-80
2023/09/27 00:17:31;;;;;;;4.47;4.07;;;;;;;;;;5042632;28;20218;-82
2023/09/27 00:19:59;;;;;;;4.67;4.17;;;;;;;;;;5040806;28;20206;-80
2023/09/27 00:22:27;;;;;;;6.37;4.67;;;;;;;;;;5040238;28;20244;-82
2023/09/27 00:24:54;;;;;;;5.13;4.50;;;;;;;;;;5041659;28;20231;-80
2023/09/27 00:27:21;;;;;;;5.30;3.80;;;;;;;;;;5047184;28;20206;-80
2023/09/27 00:29:49;;;;;;;4.20;3.87;;;;;;;;;;5036569;28;20273;-80
2023/09/27 00:32:16;;;;;;;4.43;4.03;;;;;;;;;;5044050;28;20263;-81
2023/09/27 00:34:43;;;;;;;5.13;4.63;;;;;;;;;;5039266;28;20226;-81
2023/09/27 00:37:10;;;;;;;5.07;4.53;;;;;;;;;;5024341;28;20616;-82
2023/09/27 00:39:39;;;;;;;4.37;3.93;;;;;;;;;;5032333;28;20381;-81
2023/09/27 00:42:06;;;;;;;5.97;4.20;;;;;;;;;;5027083;28;20206;-81
2023/09/27 00:44:34;;;;;;;5.30;4.80;;;;;;;;;;5024667;28;20321;-81
2023/09/27 00:47:02;;;;;;;5.33;4.47;;;;;;;;;;5041476;28;20285;-81
2023/09/27 00:49:30;;;;;;;4.53;4.23;;;;;;;;;;5039476;28;20198;-81
2023/09/27 00:51:57;;;;;;;5.17;4.67;;;;;;;;;;5051041;28;20206;-80
2023/09/27 00:54:24;;;;;;;5.27;4.77;;;;;;;;;;5022568;28;20262;-81
2023/09/27 00:56:52;;;;;;;6.23;5.73;;;;;;;;;;5041607;28;20658;-82
2023/09/27 00:59:20;;;;;;;4.97;4.20;;;;;;;;;;5035999;28;20267;-83
2023/09/27 01:01:47;;;;;;;5.27;4.40;;;;;;;;;;5045587;28;20206;-80
2023/09/27 01:04:14;;;;;;;9.90;8.40;;;;;;;;;;5023877;28;20227;-81
2023/09/27 01:06:42;;;;;;;6.20;5.50;;;;;;;;;;5030695;28;20261;-81
2023/09/27 01:09:11;;;;;;;6.30;5.50;;;;;;;;;;5022785;28;20195;-82
2023/09/27 01:11:39;;;;;;;5.20;4.70;;;;;;;;;;5019896;28;20686;-82
2023/09/27 01:14:06;;;;;;;5.10;4.07;;;;;;;;;;5025476;28;20226;-80
2023/09/27 01:16:33;;;;;;;5.07;4.67;;;;;;;;;;5039837;28;20695;-81
2023/09/27 01:19:02;;;;;;;4.40;4.00;;;;;;;;;;5042516;28;20213;-81
2023/09/27 01:21:29;;;;;;;6.60;5.03;;;;;;;;;;5043423;28;20241;-81
2023/09/27 01:23:56;;;;;;;6.20;5.20;;;;;;;;;;5036928;28;20799;-82
2023/09/27 01:26:24;;;;;;;6.00;5.20;;;;;;;;;;5040642;28;20222;-81
2023/09/27 01:28:51;;;;;;;8.47;5.53;;;;;;;;;;5027981;28;20261;-81
2023/09/27 01:31:19;;;;;;;6.93;6.43;;;;;;;;;;5026306;28;20258;-82
2023/09/27 01:33:46;;;;;;;6.30;5.80;;;;;;;;;;5027982;28;20287;-82
2023/09/27 01:36:13;;;;;;;5.93;5.47;;;;;;;;;;5034469;28;20211;-81
2023/09/27 01:38:40;;;;;;;5.60;5.03;;;;;;;;;;5032283;28;20293;-81
2023/09/27 01:41:08;;;;;;;4.77;4.37;;;;;;;;;;5031699;28;20249;-80
2023/09/27 01:43:35;;;;;;;4.33;3.87;;;;;;;;;;5037182;28;20293;-80
2023/09/27 01:46:02;;;;;;;4.23;3.83;;;;;;;;;;5035966;28;20298;-82
2023/09/27 01:48:30;;;;;;;3.47;3.20;;;;;;;;;;5041367;28;20202;-79
2023/09/27 01:50:57;;;;;;;3.47;2.90;;;;;;;;;;5017561;28;20775;-80
2023/09/27 01:53:24;;;;;;;3.80;3.40;;;;;;;;;;5040720;28;20210;-80
2023/09/27 01:55:52;;;;;;;3.50;3.20;;;;;;;;;;5028321;28;20293;-80
2023/09/27 01:58:19;;;;;;;4.03;3.47;;;;;;;;;;5017463;28;20650;-81
2023/09/27 02:00:46;;;;;;;4.53;4.13;;;;;;;;;;5040901;28;20301;-82
2023/09/27 02:03:13;;;;;;;3.87;3.43;;;;;;;;;;5013226;28;20207;-81
2023/09/27 02:05:41;;;;;;;3.33;2.90;;;;;;;;;;5034217;28;20659;-81
2023/09/27 02:08:11;;;;;;;6.30;4.67;;;;;;;;;;5033575;28;20350;-80
2023/09/27 02:10:39;;;;;;;19.77;12.10;;;;;;;;;;5027508;28;20731;-79
2023/09/27 02:13:06;;;;;;;26.37;14.37;;;;;;;;;;5015819;28;20705;-82
2023/09/27 02:15:33;;;;;;;14.47;9.43;;;;;;;;;;5023325;28;20226;-79
2023/09/27 02:18:00;;;;;;;9.40;6.60;;;;;;;;;;5032301;28;20629;-80
2023/09/27 02:20:28;;;;;;;8.97;6.67;;;;;;;;;;5031081;28;20226;-83
2023/09/27 02:22:55;;;;;;;7.93;6.37;;;;;;;;;;5016265;28;20222;-83
2023/09/27 02:25:23;;;;;;;6.80;5.77;;;;;;;;;;5028920;28;20262;-82
2023/09/27 02:27:50;;;;;;;6.13;5.53;;;;;;;;;;5022811;28;20210;-83
2023/09/27 02:30:17;;;;;;;6.40;5.30;;;;;;;;;;5033135;28;20206;-82
2023/09/27 02:32:45;;;;;;;6.20;5.60;;;;;;;;;;5027179;28;20203;-81
2023/09/27 02:35:13;;;;;;;7.47;6.33;;;;;;;;;;5034157;28;20591;-81
2023/09/27 02:37:42;;;;;;;6.37;5.87;;;;;;;;;;5028451;28;20206;-80
2023/09/27 02:40:12;;;;;;;6.87;6.17;;;;;;;;;;5030732;28;20261;-80
2023/09/27 02:42:43;;;;;;;6.60;6.07;;;;;;;;;;5030574;28;20265;-81
2023/09/27 02:45:11;;;;;;;6.23;5.70;;;;;;;;;;5039266;28;20226;-80
2023/09/27 02:47:39;;;;;;;6.37;5.77;;;;;;;;;;5029339;28;20202;-80
2023/09/27 02:50:11;;;;;;;5.10;4.63;;;;;;;;;;5030876;28;20199;-80
2023/09/27 02:52:38;;;;;;;5.37;4.87;;;;;;;;;;5015842;28;20203;-80
2023/09/27 02:55:08;;;;;;;6.17;5.67;;;;;;;;;;5035498;28;20219;-78
2023/09/27 02:57:36;;;;;;;4.97;4.57;;;;;;;;;;5029346;28;20317;-80
2023/09/27 03:00:06;;;;;;;5.13;4.60;;;;;;;;;;5032114;28;20796;-81
2023/09/27 03:02:34;;;;;;;5.40;4.90;;;;;;;;;;5026799;28;22670;-81
2023/09/27 03:05:05;;;;;;;6.10;5.30;;;;;;;;;;5010257;28;20247;-81
2023/09/27 03:07:36;;;;;;;5.23;4.20;;;;;;;;;;5023967;28;20598;-81
2023/09/27 03:10:07;;;;;;;8.30;6.37;;;;;;;;;;5027123;28;20213;-82
2023/09/27 03:12:35;;;;;;;16.30;10.90;;;;;;;;;;5040402;28;20205;-83
2023/09/27 03:15:03;;;;;;;8.90;6.20;;;;;;;;;;5033550;28;20271;-83
2023/09/27 03:17:30;;;;;;;9.27;7.57;;;;;;;;;;5015054;28;20322;-82
2023/09/27 03:19:57;;;;;;;7.10;6.30;;;;;;;;;;5021073;28;20234;-81
2023/09/27 03:22:24;;;;;;;8.40;7.13;;;;;;;;;;5018809;28;20229;-81
2023/09/27 03:24:52;;;;;;;8.53;7.07;;;;;;;;;;5026359;28;20223;-80
2023/09/27 03:27:19;;;;;;;6.50;5.90;;;;;;;;;;5015132;28;20352;-80
2023/09/27 03:29:46;;;;;;;6.63;6.03;;;;;;;;;;5026014;28;20203;-79
2023/09/27 03:32:13;;;;;;;6.47;5.77;;;;;;;;;;5042415;28;20410;-78
2023/09/27 03:34:41;;;;;;;5.33;4.83;;;;;;;;;;5040009;28;20246;-81
2023/09/27 03:37:08;;;;;;;9.80;7.57;;;;;;;;;;5042402;28;20207;-81
2023/09/27 03:39:35;;;;;;;9.57;8.57;;;;;;;;;;5045660;28;20277;-83
2023/09/27 03:42:03;;;;;;;7.20;6.50;;;;;;;;;;5021529;28;20217;-83
2023/09/27 03:44:31;;;;;;;14.07;11.37;;;;;;;;;;5021712;28;20222;-82
2023/09/27 03:46:58;;;;;;;14.70;12.20;;;;;;;;;;5031095;28;20235;-83
2023/09/27 03:49:26;;;;;;;12.37;10.77;;;;;;;;;;5031713;28;20283;-81
2023/09/27 03:51:53;;;;;;;6.27;5.67;;;;;;;;;;5019325;28;20234;-80
2023/09/27 03:54:21;;;;;;;5.83;5.33;;;;;;;;;;5034065;28;20273;-81
2023/09/27 03:56:48;;;;;;;6.23;5.47;;;;;;;;;;5012885;28;20212;-80
2023/09/27 03:59:16;;;;;;;6.07;5.47;;;;;;;;;;5027140;28;20208;-84
2023/09/27 04:01:43;;;;;;;5.53;5.03;;;;;;;;;;5006275;28;20431;-83
2023/09/27 04:04:10;;;;;;;5.83;4.97;;;;;;;;;;5006773;28;20577;-81
2023/09/27 04:06:38;;;;;;;5.23;4.83;;;;;;;;;;5002893;28;20243;-80
2023/09/27 04:09:09;;;;;;;7.00;4.93;;;;;;;;;;5021456;28;20215;-79
2023/09/27 04:11:37;;;;;;;5.53;4.93;;;;;;;;;;5030809;28;20198;-80
2023/09/27 04:14:05;;;;;;;6.10;4.70;;;;;;;;;;5041841;28;20289;-82
2023/09/27 04:16:33;;;;;;;5.50;4.97;;;;;;;;;;5040345;28;20202;-81
2023/09/27 04:19:00;;;;;;;3.87;3.57;;;;;;;;;;5028230;28;20279;-82
2023/09/27 04:21:28;;;;;;;5.20;4.10;;;;;;;;;;5024871;28;20210;-83
2023/09/27 04:23:56;;;;;;;8.07;4.83;;;;;;;;;;5022815;28;20210;-80
2023/09/27 04:26:24;;;;;;;5.07;3.93;;;;;;;;;;5028770;28;20222;-80
2023/09/27 04:28:52;;;;;;;5.87;4.60;;;;;;;;;;5016034;28;20218;-79
2023/09/27 04:31:20;;;;;;;11.53;5.97;;;;;;;;;;5014734;28;20207;-80
2023/09/27 04:33:47;;;;;;;13.77;6.47;;;;;;;;;;5021266;28;20740;-79
2023/09/27 04:36:17;;;;;;;7.63;6.63;;;;;;;;;;5038904;28;20241;-80
2023/09/27 04:38:45;;;;;;;9.53;6.43;;;;;;;;;;5037401;28;20207;-81
2023/09/27 04:41:14;;;;;;;14.70;8.67;;;;;;;;;;5027959;28;20729;-80
2023/09/27 04:43:44;;;;;;;12.27;9.50;;;;;;;;;;5029419;28;20308;-83
2023/09/27 04:46:16;;;;;;;11.77;9.40;;;;;;;;;;5010187;28;20231;-81
2023/09/27 04:48:44;;;;;;;13.47;9.77;;;;;;;;;;5014164;28;20635;-81
2023/09/27 04:51:11;;;;;;;10.90;9.67;;;;;;;;;;5035946;28;20203;-82
2023/09/27 04:53:39;;;;;;;15.27;9.73;;;;;;;;;;5041126;28;20711;-82
2023/09/27 04:56:12;;;;;;;10.33;7.80;;;;;;;;;;5036301;28;20220;-81
2023/09/27 04:58:43;;;;;;;13.87;7.43;;;;;;;;;;5031367;28;20234;-80
2023/09/27 05:01:10;;;;;;;6.33;4.90;;;;;;;;;;5032736;28;20206;-81
2023/09/27 05:03:38;;;;;;;7.50;5.40;;;;;;;;;;5031469;28;20206;-80
2023/09/27 05:06:05;;;;;;;8.67;4.77;;;;;;;;;;5032396;28;20249;-83
2023/09/27 05:08:33;;;;;;;8.53;4.90;;;;;;;;;;5027268;28;20202;-84
2023/09/27 05:11:00;;;;;;;19.33;12.63;;;;;;;;;;5011077;28;20754;-83
2023/09/27 05:13:28;;;;;;;29.83;19.27;;;;;;;;;;5037338;28;20206;-83
2023/09/27 05:15:55;;;;;;;35.63;21.67;;;;;;;;;;5029867;28;20232;-80
2023/09/27 05:18:22;;;;;;;26.83;15.93;;;;;;;;;;5007387;28;20279;-83
2023/09/27 05:20:50;;;;;;;11.20;7.63;;;;;;;;;;5049346;28;20210;-83
2023/09/27 05:23:17;;;;;;;8.93;7.00;;;;;;;;;;5027626;28;20222;-84
2023/09/27 05:25:45;;;;;;;13.20;8.47;;;;;;;;;;5003545;28;20245;-80
2023/09/27 05:28:12;;;;;;;13.67;9.50;;;;;;;;;;5019403;28;20258;-81
2023/09/27 05:30:39;;;;;;;13.40;8.90;;;;;;;;;;5019505;28;20210;-84
2023/09/27 05:33:07;;;;;;;8.60;6.60;;;;;;;;;;5009596;28;20199;-84
2023/09/27 05:35:35;;;;;;;13.83;8.27;;;;;;;;;;5037061;28;20219;-85
2023/09/27 05:38:03;;;;;;;12.03;9.50;;;;;;;;;;5020237;28;20218;-85
2023/09/27 05:40:31;;;;;;;12.23;9.40;;;;;;;;;;5010986;28;20204;-82
2023/09/27 05:42:58;;;;;;;12.47;8.30;;;;;;;;;;5039740;28;20206;-82
2023/09/27 05:45:28;;;;;;;11.40;7.57;;;;;;;;;;5034234;28;20219;-81
2023/09/27 05:47:55;;;;;;;12.60;8.10;;;;;;;;;;5030739;28;20226;-83
2023/09/27 05:50:23;;;;;;;14.00;9.17;;;;;;;;;;5038820;28;20633;-84
2023/09/27 05:52:50;;;;;;;10.63;9.13;;;;;;;;;;5030596;28;20672;-83
2023/09/27 05:55:18;;;;;;;13.63;10.60;;;;;;;;;;5027777;28;20601;-82
2023/09/27 05:57:45;;;;;;;13.17;9.73;;;;;;;;;;5035075;28;20608;-82
2023/09/27 06:00:26;;;;;;;12.80;10.37;;;;;;;;;;5013581;28;20207;-84
2023/09/27 06:02:53;;;;;;;13.83;9.63;;;;;;;;;;5027691;28;20213;-85
2023/09/27 06:05:21;;;;;;;11.20;8.40;;;;;;;;;;5030032;28;20258;-83
2023/09/27 06:07:49;;;;;;;11.40;8.40;;;;;;;;;;5028881;28;20215;-81
2023/09/27 06:10:16;;;;;;;10.50;6.93;;;;;;;;;;5029778;28;20369;-83
2023/09/27 06:12:43;;;;;;;16.70;7.87;;;;;;;;;;5030468;28;20206;-81
2023/09/27 06:15:12;;;;;;;6.43;5.50;;;;;;;;;;5034818;28;20237;-80
2023/09/27 06:17:40;;;;;;;14.77;7.67;;;;;;;;;;5038504;28;20237;-80
2023/09/27 06:20:11;;;;;;;15.40;9.23;;;;;;;;;;5032742;28;20245;-79
2023/09/27 06:22:40;;;;;;;10.97;7.50;;;;;;;;;;5010655;28;20215;-82
2023/09/27 06:25:08;;;;;;;7.47;5.77;;;;;;;;;;5031487;28;20304;-80
2023/09/27 06:27:35;;;;;;;10.70;5.87;;;;;;;;;;5030424;28;20226;-80
2023/09/27 06:30:03;;;;;;;13.77;5.60;;;;;;;;;;5018765;28;20203;-82
2023/09/27 06:32:31;;;;;;;8.90;5.77;;;;;;;;;;5024485;28;20215;-84
2023/09/27 06:34:58;;;;;;;10.03;6.07;;;;;;;;;;5020144;28;20220;-85
2023/09/27 06:37:27;;;;;;;8.43;5.40;;;;;;;;;;5043220;28;20210;-83
2023/09/27 06:39:55;;;;;;;12.83;5.60;;;;;;;;;;5032948;28;20890;-84
2023/09/27 06:42:23;;;;;;;8.03;5.40;;;;;;;;;;5028261;28;20298;-84
2023/09/27 06:44:50;;;;;;;5.20;4.70;;;;;;;;;;5036146;28;20238;-81
2023/09/27 06:47:17;;;;;;;10.73;4.73;;;;;;;;;;5041378;28;20276;-80
2023/09/27 06:49:45;;;;;;;5.70;4.50;;;;;;;;;;5021161;28;20738;-81
2023/09/27 06:52:12;;;;;;;6.73;4.50;;;;;;;;;;5015267;28;20273;-81
2023/09/27 06:54:40;;;;;;;5.70;4.67;;;;;;;;;;5017088;28;20223;-78
2023/09/27 06:57:08;;;;;;;8.67;4.83;;;;;;;;;;5025559;28;20203;-81
2023/09/27 06:59:36;;;;;;;8.20;5.30;;;;;;;;;;5035639;28;20363;-79
2023/09/27 07:02:03;;;;;;;6.43;5.13;;;;;;;;;;5036572;28;20221;-80
2023/09/27 07:04:30;;;;;;;10.03;6.00;;;;;;;;;;5033421;28;20222;-84
2023/09/27 07:06:58;;;;;;;12.17;6.10;;;;;;;;;;5021316;28;20226;-83
2023/09/27 07:09:25;;;;;;;15.63;6.63;;;;;;;;;;5026463;28;20203;-83
2023/09/27 07:11:53;;;;;;;17.77;7.67;;;;;;;;;;5021873;28;20576;-83
2023/09/27 07:14:20;;;;;;;16.70;7.63;;;;;;;;;;5000622;28;20533;-85
2023/09/27 07:16:47;;;;;;;13.10;8.10;;;;;;;;;;5029701;28;20210;-79
2023/09/27 07:19:28;;;;;;;22.13;7.47;;;;;;;;;;5020105;28;20225;-82
2023/09/27 07:21:55;;;;;;;14.27;7.33;;;;;;;;;;5016045;28;20732;-79
2023/09/27 07:24:23;;;;;;;13.30;7.33;;;;;;;;;;5011944;28;20231;-81
2023/09/27 07:26:52;;;;;;;19.70;10.63;;;;;;;;;;5024565;28;20227;-81
2023/09/27 07:29:20;;;;;;;19.57;9.03;;;;;;;;;;5025940;28;20202;-83
2023/09/27 07:31:47;;;;;;;8.47;7.10;;;;;;;;;;5006419;28;20207;-86
2023/09/27 07:34:15;;;;;;;11.77;7.67;;;;;;;;;;5029013;28;20284;-81
2023/09/27 07:36:46;;;;;;;10.93;6.00;;;;;;;;;;5027687;28;20635;-81
2023/09/27 07:39:15;;;;;;;8.97;5.50;;;;;;;;;;5030208;28;20203;-82
2023/09/27 07:41:43;;;;;;;8.77;5.83;;;;;;;;;;5032652;28;20229;-81
2023/09/27 07:44:10;;;;;;;8.23;5.57;;;;;;;;;;5025646;28;20223;-82
2023/09/27 07:46:38;;;;;;;10.00;6.17;;;;;;;;;;5013245;28;20205;-84
2023/09/27 07:49:06;;;;;;;14.13;6.40;;;;;;;;;;5014089;28;20222;-84
2023/09/27 07:51:33;;;;;;;16.38;6.93;;;;;;;;;;5027566;28;20228;-81
2023/09/27 07:54:03;;;;;;;15.75;6.30;;;;;;;;;;5047896;28;20261;-84
2023/09/27 07:56:36;;;;;;;21.57;11.20;;;;;;;;;;5037081;28;20211;-86
2023/09/27 07:59:04;;;;;;;15.05;6.93;;;;;;;;;;5026082;28;20215;-83
2023/09/27 08:01:33;;;;;;;10.80;6.47;;;;;;;;;;5026936;28;20210;-83
2023/09/27 08:04:12;;;;;;;14.45;6.30;;;;;;;;;;5028745;28;20203;-79
2023/09/27 08:06:40;;;;;;;14.85;5.43;;;;;;;;;;5028830;28;20207;-83
2023/09/27 08:09:07;;;;;;;13.15;4.65;;;;;;;;;;5027102;28;20282;-79
2023/09/27 08:11:46;;;;;;;6.00;4.13;;;;;;;;;;5033501;28;20233;-80
2023/09/27 08:14:18;;;;;;;8.30;3.50;;;;;;;;;;5016072;28;20235;-83
2023/09/27 08:16:45;;;;;;;3.65;3.10;;;;;;;;;;5034515;28;20201;-83
2023/09/27 08:19:13;;;;;;;3.35;2.80;;;;;;;;;;5033412;28;20286;-82
2023/09/27 08:21:41;;;;;;;3.38;2.53;;;;;;;;;;5031129;28;20210;-84
2023/09/27 08:24:08;;;;;;;2.70;2.50;;;;;;;;;;5032472;28;20314;-81
2023/09/27 08:26:36;;;;;;;4.35;2.15;;;;;;;;;;5030950;28;20206;-79
2023/09/27 08:29:05;;;;;;;3.72;2.15;;;;;;;;;;5012927;28;20231;-81
2023/09/27 08:31:36;;;;;;;4.68;3.50;;;;;;;;;;5031779;28;20206;-82
2023/09/27 08:34:04;;;;;;;3.95;3.22;;;;;;;;;;5029528;28;20306;-82
2023/09/27 08:36:31;;;;;;;6.10;3.60;;;;;;;;;;5014534;28;20226;-82
2023/09/27 08:38:58;;;;;;;7.28;3.70;;;;;;;;;;5031110;28;20743;-81
2023/09/27 08:41:26;;;;;;;4.00;2.78;;;;;;;;;;5030633;28;20214;-83
2023/09/27 08:43:55;;;;;;;4.30;2.50;;;;;;;;;;5033219;28;20207;-81
2023/09/27 08:46:23;;;;;;;3.38;2.70;;;;;;;;;;5031467;28;20585;-80
2023/09/27 08:48:52;;;;;;;2.88;2.67;;;;;;;;;;5031571;28;20238;-79
2023/09/27 08:51:19;;;;;;;3.10;2.22;;;;;;;;;;5029308;28;20203;-82
2023/09/27 08:53:47;;;;;;;2.53;2.28;;;;;;;;;;5031345;28;20748;-79
2023/09/27 08:56:16;;;;;;;2.38;2.20;;;;;;;;;;5031216;28;20676;-83
2023/09/27 08:58:46;;;;;;;2.70;2.13;;;;;;;;;;5009741;28;20211;-83
2023/09/27 09:01:13;;;;;;;2.25;2.05;;;;;;;;;;5011480;28;20203;-82
2023/09/27 09:03:41;;;;;;;2.20;2.00;;;;;;;;;;5023221;28;20214;-81
2023/09/27 09:06:11;;;;;;;2.83;2.63;;;;;;;;;;5036344;28;20407;-80
2023/09/27 09:08:46;;;;;;;2.85;2.45;;;;;;;;;;5032386;28;20231;-82
2023/09/27 09:11:19;;;;;;;2.78;2.42;;;;;;;;;;5033742;28;20221;-83
2023/09/27 09:13:57;;;;;;;5.43;3.53;;;;;;;;;;5040284;28;20656;-84
2023/09/27 09:16:24;;;;;;;2.78;2.58;;;;;;;;;;5034530;28;20258;-82
2023/09/27 09:18:52;;;;;;;2.85;2.60;;;;;;;;;;5025780;28;20203;-83
2023/09/27 09:21:25;;;;;;;2.70;2.50;;;;;;;;;;5028223;28;20266;-83
2023/09/27 09:23:53;;;;;;;3.30;2.75;;;;;;;;;;5022411;28;20865;-80
2023/09/27 09:26:28;;;;;;;3.10;2.88;;;;;;;;;;5014144;28;20195;-84
2023/09/27 09:28:57;;;;;;;3.17;2.88;;;;;;;;;;5036592;28;20230;-78
2023/09/27 09:31:26;;;;;;;3.03;2.83;;;;;;;;;;5026211;28;20226;-84
2023/09/27 09:34:06;;;;;;;2.70;2.47;;;;;;;;;;5026332;28;20203;-83
2023/09/27 09:36:34;;;;;;;2.95;2.17;;;;;;;;;;5030004;28;20206;-82
2023/09/27 09:39:14;;;;;;;2.65;2.45;;;;;;;;;;5028650;28;20222;-82
2023/09/27 09:41:45;;;;;;;2.40;2.20;;;;;;;;;;5012489;28;20225;-80
2023/09/27 09:44:18;;;;;;;3.97;2.80;;;;;;;;;;5027241;28;20277;-80
2023/09/27 09:46:46;;;;;;;3.22;2.28;;;;;;;;;;5032563;28;20725;-81
2023/09/27 09:49:17;;;;;;;3.47;2.53;;;;;;;;;;5033854;28;20246;-82
2023/09/27 09:51:47;;;;;;;2.70;2.50;;;;;;;;;;5033108;28;20203;-78
2023/09/27 09:54:20;;;;;;;4.53;3.22;;;;;;;;;;5015248;28;20308;-82
2023/09/27 09:56:49;;;;;;;4.18;2.63;;;;;;;;;;5030824;28;20219;-81
2023/09/27 09:59:42;;;;;;;2.63;2.42;;;;;;;;;;5039285;28;20961;-85
2023/09/27 10:02:20;;;;;;;3.03;2.20;;;;;;;;;;5017629;28;20211;-83
2023/09/27 10:04:49;;;;;;;2.63;2.42;;;;;;;;;;5018571;28;20777;-84
2023/09/27 10:07:17;;;;;;;2.20;2.10;;;;;;;;;;5031000;28;20203;-82
2023/09/27 10:09:45;;;;;;;3.33;2.33;;;;;;;;;;5026418;28;20202;-82
2023/09/27 10:12:14;;;;;;;2.95;2.45;;;;;;;;;;5032695;28;20203;-81
2023/09/27 10:14:41;;;;;;;2.88;2.67;;;;;;;;;;5033515;28;20222;-79
2023/09/27 10:17:22;;;;;;;2.67;2.47;;;;;;;;;;5027320;28;20596;-82
2023/09/27 10:20:17;;;;;;;2.35;2.15;;;;;;;;;;5029420;28;20263;-82
2023/09/27 10:22:45;;;;;;;2.00;1.90;;;;;;;;;;5035822;28;20215;-82
2023/09/27 10:25:28;;;;;;;3.50;2.22;;;;;;;;;;5033277;28;20223;-80
2023/09/27 10:28:02;;;;;;;3.97;2.22;;;;;;;;;;5041821;28;20231;-84
2023/09/27 10:30:41;;;;;;;2.08;1.88;;;;;;;;;;5040348;28;20207;-82
2023/09/27 10:33:18;;;;;;;2.55;2.05;;;;;;;;;;5029713;28;20198;-82
2023/09/27 10:36:01;;;;;;;2.58;2.33;;;;;;;;;;5024270;28;20348;-83
2023/09/27 10:38:47;;;;;;;2.72;2.10;;;;;;;;;;5018231;28;20202;-83
2023/09/27 10:41:33;;;;;;;3.78;2.53;;;;;;;;;;5011191;28;20263;-80
2023/09/27 10:44:01;;;;;;;2.38;2.17;;;;;;;;;;5023903;28;20210;-79
2023/09/27 10:46:48;;;;;;;2.67;2.47;;;;;;;;;;5031166;28;20206;-81
2023/09/27 10:49:22;;;;;;;4.65;2.50;;;;;;;;;;5026751;28;20218;-82
2023/09/27 10:51:50;;;;;;;2.38;2.17;;;;;;;;;;5013727;28;20814;-83
2023/09/27 10:54:28;;;;;;;2.53;2.15;;;;;;;;;;5029460;28;20309;-81
2023/09/27 10:56:57;;;;;;;2.13;1.90;;;;;;;;;;5032520;28;20225;-81
2023/09/27 10:59:25;;;;;;;3.97;2.70;;;;;;;;;;5037454;28;20605;-82
2023/09/27 11:01:53;;;;;;;2.28;2.08;;;;;;;;;;5031639;28;20210;-80
2023/09/27 11:04:21;;;;;;;2.33;2.10;;;;;;;;;;5032252;28;20222;-80
2023/09/27 11:06:50;;;;;;;4.32;2.20;;;;;;;;;;5031577;28;20236;-81
2023/09/27 11:09:20;;;;;;;2.25;2.05;;;;;;;;;;5041040;28;21031;-80
2023/09/27 11:11:50;;;;;;;3.85;2.50;;;;;;;;;;5035557;28;20199;-81
2023/09/27 11:14:31;;;;;;;2.50;2.30;;;;;;;;;;5021819;28;21465;-82
2023/09/27 11:17:21;;;;;;;2.75;2.13;;;;;;;;;;5018349;28;20315;-84
2023/09/27 11:19:50;;;;;;;2.63;1.98;;;;;;;;;;5008787;28;20213;-79
2023/09/27 11:22:28;;;;;;;2.42;2.22;;;;;;;;;;5031482;28;20207;-81
2023/09/27 11:24:55;;;;;;;3.28;2.05;;;;;;;;;;5026070;28;20226;-84
2023/09/27 11:27:23;;;;;;;2.58;2.38;;;;;;;;;;5024450;28;20226;-83
2023/09/27 11:29:53;;;;;;;4.22;2.08;;;;;;;;;;5030038;28;20223;-83
2023/09/27 11:32:21;;;;;;;4.07;2.45;;;;;;;;;;5009115;28;20201;-79
2023/09/27 11:34:59;;;;;;;3.72;2.58;;;;;;;;;;5022775;28;21941;-83
2023/09/27 11:37:28;;;;;;;6.60;2.50;;;;;;;;;;5006446;28;20214;-84
2023/09/27 11:39:57;;;;;;;2.67;2.00;;;;;;;;;;5017332;28;20233;-84
2023/09/27 11:42:25;;;;;;;3.55;2.30;;;;;;;;;;5034242;28;20214;-83
2023/09/27 11:45:04;;;;;;;3.03;2.42;;;;;;;;;;5019094;28;20322;-81
2023/09/27 11:47:32;;;;;;;2.95;2.20;;;;;;;;;;5032923;28;20206;-78
2023/09/27 11:50:00;;;;;;;2.38;2.03;;;;;;;;;;5030833;28;20238;-82
2023/09/27 11:52:27;;;;;;;2.45;2.08;;;;;;;;;;5037691;28;20202;-82
2023/09/27 11:54:54;;;;;;;2.15;1.77;;;;;;;;;;5031350;28;20222;-82
2023/09/27 11:57:23;;;;;;;1.98;1.88;;;;;;;;;;5028645;28;20204;-84
2023/09/27 11:59:54;;;;;;;2.78;1.98;;;;;;;;;;5040962;28;20198;-84
2023/09/27 12:02:21;;;;;;;2.05;1.85;;;;;;;;;;5017673;28;20199;-85
2023/09/27 12:04:57;;;;;;;2.08;1.88;;;;;;;;;;5033735;28;20263;-85
2023/09/27 12:07:27;;;;;;;2.20;2.00;;;;;;;;;;5014446;28;20196;-86
2023/09/27 12:09:55;;;;;;;2.15;1.95;;;;;;;;;;5015678;28;20305;-82
2023/09/27 12:12:22;;;;;;;2.22;2.03;;;;;;;;;;5028978;28;20199;-85
2023/09/27 12:14:49;;;;;;;2.28;2.08;;;;;;;;;;5035515;28;20877;-80
2023/09/27 12:17:19;;;;;;;2.42;1.60;;;;;;;;;;5035920;28;20234;-81
2023/09/27 12:19:47;;;;;;;1.70;1.60;;;;;;;;;;5027884;28;20301;-80
2023/09/27 12:22:15;;;;;;;3.67;1.88;;;;;;;;;;5033069;28;20337;-83
2023/09/27 12:24:42;;;;;;;1.88;1.70;;;;;;;;;;5038606;28;20230;-85
2023/09/27 12:27:09;;;;;;;2.00;1.80;;;;;;;;;;5029736;28;20294;-84
2023/09/27 12:29:37;;;;;;;4.80;2.80;;;;;;;;;;5024787;28;20219;-84
2023/09/27 12:32:05;;;;;;;1.85;1.70;;;;;;;;;;5036887;28;20201;-85
2023/09/27 12:34:32;;;;;;;2.00;1.80;;;;;;;;;;5025981;28;20215;-78
2023/09/27 12:36:59;;;;;;;2.97;1.85;;;;;;;;;;5013025;28;20266;-79
2023/09/27 12:39:26;;;;;;;1.65;1.55;;;;;;;;;;5017537;28;20257;-82
2023/09/27 12:41:54;;;;;;;1.63;1.52;;;;;;;;;;5025171;28;20199;-84
2023/09/27 12:44:21;;;;;;;2.75;1.90;;;;;;;;;;5026406;28;20227;-85
2023/09/27 12:46:49;;;;;;;1.80;1.70;;;;;;;;;;5015889;28;20212;-80
2023/09/27 12:49:17;;;;;;;2.05;1.88;;;;;;;;;;5036011;28;20227;-81
2023/09/27 12:51:45;;;;;;;1.88;1.77;;;;;;;;;;5019582;28;20206;-81
2023/09/27 12:54:16;;;;;;;2.25;2.05;;;;;;;;;;5034038;28;20246;-78
2023/09/27 12:56:43;;;;;;;2.08;1.80;;;;;;;;;;5030972;28;20211;-86
2023/09/27 12:59:11;;;;;;;3.03;2.08;;;;;;;;;;5008261;28;20227;-82
2023/09/27 13:01:38;;;;;;;2.20;2.00;;;;;;;;;;5035399;28;20278;-84
2023/09/27 13:04:07;;;;;;;1.85;1.70;;;;;;;;;;5027719;28;20212;-83
2023/09/27 13:06:34;;;;;;;2.75;1.90;;;;;;;;;;5024056;28;20796;-84
2023/09/27 13:09:02;;;;;;;2.72;1.90;;;;;;;;;;5034597;28;20227;-83
2023/09/27 13:11:29;;;;;;;2.55;2.10;;;;;;;;;;5040173;28;20842;-84
2023/09/27 13:13:57;;;;;;;2.10;1.90;;;;;;;;;;5015025;28;20576;-84
2023/09/27 13:16:24;;;;;;;3.00;1.80;;;;;;;;;;5043037;28;20203;-83
2023/09/27 13:18:51;;;;;;;3.03;2.00;;;;;;;;;;5041563;28;20213;-84
2023/09/27 13:21:20;;;;;;;1.98;1.77;;;;;;;;;;5040438;28;20206;-80
2023/09/27 13:23:48;;;;;;;2.80;1.92;;;;;;;;;;5031911;28;20227;-82
2023/09/27 13:26:15;;;;;;;2.97;1.98;;;;;;;;;;5035796;28;20402;-79
2023/09/27 13:28:43;;;;;;;1.98;1.80;;;;;;;;;;5031419;28;20219;-79
2023/09/27 13:31:10;;;;;;;3.55;2.35;;;;;;;;;;5020165;28;22629;-82
2023/09/27 13:33:37;;;;;;;2.00;1.80;;;;;;;;;;5034913;28;20290;-83
2023/09/27 13:36:05;;;;;;;2.33;2.13;;;;;;;;;;5029215;28;20219;-83
2023/09/27 13:38:33;;;;;;;2.78;2.10;;;;;;;;;;5034503;28;20214;-83
2023/09/27 13:41:00;;;;;;;2.28;2.08;;;;;;;;;;5031812;28;20254;-83
2023/09/27 13:43:28;;;;;;;2.30;2.10;;;;;;;;;;5040878;28;20209;-86
2023/09/27 13:45:56;;;;;;;2.42;2.15;;;;;;;;;;5044845;28;20289;-86
2023/09/27 13:48:23;;;;;;;2.20;2.00;;;;;;;;;;5034448;28;20286;-82
2023/09/27 13:50:50;;;;;;;4.03;2.10;;;;;;;;;;5041734;28;20206;-82
2023/09/27 13:53:18;;;;;;;2.60;2.00;;;;;;;;;;5047873;28;20235;-84
2023/09/27 13:55:45;;;;;;;3.38;2.20;;;;;;;;;;5029023;28;20228;-84
2023/09/27 13:58:12;;;;;;;1.95;1.85;;;;;;;;;;5039946;28;20477;-84
2023/09/27 14:00:40;;;;;;;2.50;2.30;;;;;;;;;;5019050;28;20289;-83
2023/09/27 14:03:07;;;;;;;2.40;2.20;;;;;;;;;;5041913;28;20210;-82
2023/09/27 14:05:35;;;;;;;2.33;2.13;;;;;;;;;;5042840;28;20218;-81
2023/09/27 14:08:02;;;;;;;2.30;2.10;;;;;;;;;;5023640;28;20199;-83
2023/09/27 14:10:29;;;;;;;2.38;2.17;;;;;;;;;;5041985;28;20233;-84
2023/09/27 14:12:59;;;;;;;2.33;2.13;;;;;;;;;;5038127;28;20206;-85
2023/09/27 14:15:26;;;;;;;2.50;2.30;;;;;;;;;;5026126;28;20226;-82
2023/09/27 14:17:54;;;;;;;2.70;2.50;;;;;;;;;;5047609;28;20206;-85
2023/09/27 14:20:21;;;;;;;2.30;2.10;;;;;;;;;;5028184;28;20290;-81
2023/09/27 14:22:48;;;;;;;2.85;2.33;;;;;;;;;;5026021;28;20236;-83
2023/09/27 14:25:16;;;;;;;3.45;2.40;;;;;;;;;;5043635;28;20225;-83
2023/09/27 14:27:43;;;;;;;3.40;2.78;;;;;;;;;;5039414;28;20217;-80
2023/09/27 14:30:10;;;;;;;2.65;2.45;;;;;;;;;;5044639;28;20562;-81
2023/09/27 14:32:39;;;;;;;3.10;2.40;;;;;;;;;;5040108;28;20296;-82
2023/09/27 14:35:07;;;;;;;2.60;2.40;;;;;;;;;;5041444;28;20214;-85
2023/09/27 14:37:35;;;;;;;3.83;2.45;;;;;;;;;;5033642;28;20209;-85
2023/09/27 14:40:04;;;;;;;2.80;2.50;;;;;;;;;;5034071;28;20207;-84
2023/09/27 14:42:31;;;;;;;4.00;2.30;;;;;;;;;;5035043;28;20203;-82
2023/09/27 14:44:58;;;;;;;2.80;2.30;;;;;;;;;;5019656;28;20707;-83
2023/09/27 14:47:26;;;;;;;2.30;2.10;;;;;;;;;;5037279;28;20208;-84
2023/09/27 14:49:55;;;;;;;2.65;2.40;;;;;;;;;;5040444;28;20290;-80